sensor_id;sensor_type;location;lat;lon;timestamp;P1;durP1;ratioP1;P2;durP2;ratioP2
17592;SDS011;8915;51.760;14.300;2022-12-07T00:00:34;4.53;;;3.03;;
17592;SDS011;8915;51.760;14.300;2022-12-07T00:03:01;3.53;;;2.33;;
17592;SDS011;8915;51.760;14.300;2022-12-07T00:05:27;2.90;;;2.37;;
17592;SDS011;8915;51.760;14.300;2022-12-07T00:07:55;4.60;;;2.90;;
17592;SDS011;8915;51.760;14.300;2022-12-07T00:10:22;5.67;;;3.13;;
17592;SDS011;8915;51.760;14.300;2022-12-07T00:12:48;5.03;;;3.27;;
17592;SDS011;8915;51.760;14.300;2022-12-07T00:15:15;4.57;;;3.00;;
17592;SDS011;8915;51.760;14.300;2022-12-07T00:17:43;5.20;;;3.00;;
17592;SDS011;8915;51.760;14.300;2022-12-07T00:20:09;4.43;;;2.80;;
17592;SDS011;8915;51.760;14.300;2022-12-07T00:22:36;5.03;;;3.23;;
17592;SDS011;8915;51.760;14.300;2022-12-07T00:25:03;5.43;;;3.23;;
17592;SDS011;8915;51.760;14.300;2022-12-07T00:27:30;3.67;;;2.63;;
17592;SDS011;8915;51.760;14.300;2022-12-07T00:29:56;5.17;;;3.50;;
17592;SDS011;8915;51.760;14.300;2022-12-07T00:32:22;3.93;;;3.00;;
17592;SDS011;8915;51.760;14.300;2022-12-07T00:34:50;5.47;;;3.17;;
17592;SDS011;8915;51.760;14.300;2022-12-07T00:37:17;7.10;;;4.00;;
17592;SDS011;8915;51.760;14.300;2022-12-07T00:39:43;6.30;;;3.13;;
17592;SDS011;8915;51.760;14.300;2022-12-07T00:42:11;5.23;;;3.37;;
17592;SDS011;8915;51.760;14.300;2022-12-07T00:44:37;6.00;;;3.50;;
17592;SDS011;8915;51.760;14.300;2022-12-07T00:47:04;6.90;;;3.80;;
17592;SDS011;8915;51.760;14.300;2022-12-07T00:49:30;6.13;;;3.10;;
17592;SDS011;8915;51.760;14.300;2022-12-07T00:51:58;5.53;;;3.60;;
17592;SDS011;8915;51.760;14.300;2022-12-07T00:54:24;7.57;;;3.63;;
17592;SDS011;8915;51.760;14.300;2022-12-07T00:56:50;5.77;;;3.60;;
17592;SDS011;8915;51.760;14.300;2022-12-07T00:59:17;4.53;;;3.27;;
17592;SDS011;8915;51.760;14.300;2022-12-07T01:01:43;7.47;;;3.53;;
17592;SDS011;8915;51.760;14.300;2022-12-07T01:04:10;8.27;;;4.10;;
17592;SDS011;8915;51.760;14.300;2022-12-07T01:06:36;7.27;;;3.87;;
17592;SDS011;8915;51.760;14.300;2022-12-07T01:09:04;7.20;;;3.97;;
17592;SDS011;8915;51.760;14.300;2022-12-07T01:11:31;6.77;;;3.40;;
17592;SDS011;8915;51.760;14.300;2022-12-07T01:13:59;5.87;;;3.73;;
17592;SDS011;8915;51.760;14.300;2022-12-07T01:16:26;5.80;;;3.50;;
17592;SDS011;8915;51.760;14.300;2022-12-07T01:18:55;5.33;;;3.40;;
17592;SDS011;8915;51.760;14.300;2022-12-07T01:21:23;6.97;;;4.00;;
17592;SDS011;8915;51.760;14.300;2022-12-07T01:23:51;6.57;;;3.63;;
17592;SDS011;8915;51.760;14.300;2022-12-07T01:26:20;6.90;;;4.07;;
17592;SDS011;8915;51.760;14.300;2022-12-07T01:28:48;7.17;;;3.50;;
17592;SDS011;8915;51.760;14.300;2022-12-07T01:31:15;7.97;;;4.60;;
17592;SDS011;8915;51.760;14.300;2022-12-07T01:33:44;8.73;;;4.60;;
17592;SDS011;8915;51.760;14.300;2022-12-07T01:36:13;7.37;;;4.07;;
17592;SDS011;8915;51.760;14.300;2022-12-07T01:38:42;5.67;;;3.60;;
17592;SDS011;8915;51.760;14.300;2022-12-07T01:41:10;9.03;;;4.10;;
17592;SDS011;8915;51.760;14.300;2022-12-07T01:46:41;8.10;;;3.97;;
17592;SDS011;8915;51.760;14.300;2022-12-07T01:49:10;6.47;;;3.40;;
17592;SDS011;8915;51.760;14.300;2022-12-07T01:51:41;7.13;;;4.03;;
17592;SDS011;8915;51.760;14.300;2022-12-07T01:54:09;7.97;;;4.50;;
17592;SDS011;8915;51.760;14.300;2022-12-07T01:56:38;10.17;;;4.50;;
17592;SDS011;8915;51.760;14.300;2022-12-07T01:59:07;7.97;;;3.80;;
17592;SDS011;8915;51.760;14.300;2022-12-07T02:01:35;5.83;;;3.40;;
17592;SDS011;8915;51.760;14.300;2022-12-07T02:04:02;6.87;;;4.47;;
17592;SDS011;8915;51.760;14.300;2022-12-07T02:06:28;7.30;;;4.37;;
17592;SDS011;8915;51.760;14.300;2022-12-07T02:08:56;7.90;;;3.87;;
17592;SDS011;8915;51.760;14.300;2022-12-07T02:11:22;5.77;;;3.50;;
17592;SDS011;8915;51.760;14.300;2022-12-07T02:13:49;11.93;;;4.27;;
17592;SDS011;8915;51.760;14.300;2022-12-07T02:16:19;9.07;;;4.70;;
17592;SDS011;8915;51.760;14.300;2022-12-07T02:18:58;9.17;;;4.73;;
17592;SDS011;8915;51.760;14.300;2022-12-07T02:21:40;5.37;;;3.40;;
17592;SDS011;8915;51.760;14.300;2022-12-07T02:24:14;7.10;;;3.67;;
17592;SDS011;8915;51.760;14.300;2022-12-07T02:29:56;7.10;;;4.23;;
17592;SDS011;8915;51.760;14.300;2022-12-07T02:32:27;5.13;;;3.20;;
17592;SDS011;8915;51.760;14.300;2022-12-07T02:35:05;5.53;;;3.67;;
17592;SDS011;8915;51.760;14.300;2022-12-07T02:37:36;4.67;;;3.73;;
17592;SDS011;8915;51.760;14.300;2022-12-07T02:40:10;4.47;;;2.90;;
17592;SDS011;8915;51.760;14.300;2022-12-07T02:42:43;6.10;;;3.50;;
17592;SDS011;8915;51.760;14.300;2022-12-07T02:45:17;5.27;;;3.17;;
17592;SDS011;8915;51.760;14.300;2022-12-07T02:47:46;6.07;;;3.67;;
17592;SDS011;8915;51.760;14.300;2022-12-07T02:50:17;5.80;;;3.30;;
17592;SDS011;8915;51.760;14.300;2022-12-07T02:52:44;5.70;;;3.53;;
17592;SDS011;8915;51.760;14.300;2022-12-07T02:55:11;6.57;;;3.67;;
17592;SDS011;8915;51.760;14.300;2022-12-07T02:57:42;4.03;;;3.00;;
17592;SDS011;8915;51.760;14.300;2022-12-07T03:00:21;5.60;;;2.93;;
17592;SDS011;8915;51.760;14.300;2022-12-07T03:02:53;4.13;;;3.00;;
17592;SDS011;8915;51.760;14.300;2022-12-07T03:05:26;4.60;;;2.97;;
17592;SDS011;8915;51.760;14.300;2022-12-07T03:08:11;4.63;;;3.23;;
17592;SDS011;8915;51.760;14.300;2022-12-07T03:10:43;4.53;;;2.77;;
17592;SDS011;8915;51.760;14.300;2022-12-07T03:13:18;5.57;;;3.23;;
17592;SDS011;8915;51.760;14.300;2022-12-07T03:15:53;4.37;;;3.30;;
17592;SDS011;8915;51.760;14.300;2022-12-07T03:18:25;4.03;;;3.53;;
17592;SDS011;8915;51.760;14.300;2022-12-07T03:20:57;7.23;;;3.63;;
17592;SDS011;8915;51.760;14.300;2022-12-07T03:23:28;6.27;;;3.67;;
17592;SDS011;8915;51.760;14.300;2022-12-07T03:25:59;4.73;;;3.17;;
17592;SDS011;8915;51.760;14.300;2022-12-07T03:28:28;6.93;;;3.60;;
17592;SDS011;8915;51.760;14.300;2022-12-07T03:31:01;6.40;;;3.73;;
17592;SDS011;8915;51.760;14.300;2022-12-07T03:33:31;7.30;;;3.80;;
17592;SDS011;8915;51.760;14.300;2022-12-07T03:36:03;6.27;;;3.90;;
17592;SDS011;8915;51.760;14.300;2022-12-07T03:38:33;6.97;;;3.83;;
17592;SDS011;8915;51.760;14.300;2022-12-07T03:41:05;6.77;;;3.77;;
17592;SDS011;8915;51.760;14.300;2022-12-07T03:43:34;5.60;;;3.63;;
17592;SDS011;8915;51.760;14.300;2022-12-07T03:46:06;7.90;;;3.83;;
17592;SDS011;8915;51.760;14.300;2022-12-07T03:48:37;6.23;;;3.90;;
17592;SDS011;8915;51.760;14.300;2022-12-07T03:51:13;5.73;;;4.10;;
17592;SDS011;8915;51.760;14.300;2022-12-07T03:53:46;7.27;;;4.20;;
17592;SDS011;8915;51.760;14.300;2022-12-07T03:56:18;7.70;;;4.33;;
17592;SDS011;8915;51.760;14.300;2022-12-07T03:58:46;8.00;;;4.40;;
17592;SDS011;8915;51.760;14.300;2022-12-07T04:01:14;10.10;;;4.27;;
17592;SDS011;8915;51.760;14.300;2022-12-07T04:03:41;6.00;;;3.63;;
17592;SDS011;8915;51.760;14.300;2022-12-07T04:06:07;7.90;;;4.40;;
17592;SDS011;8915;51.760;14.300;2022-12-07T04:08:34;8.70;;;4.77;;
17592;SDS011;8915;51.760;14.300;2022-12-07T04:11:00;7.60;;;4.00;;
17592;SDS011;8915;51.760;14.300;2022-12-07T04:13:27;11.07;;;5.53;;
17592;SDS011;8915;51.760;14.300;2022-12-07T04:15:53;8.97;;;5.13;;
17592;SDS011;8915;51.760;14.300;2022-12-07T04:18:21;7.93;;;4.70;;
17592;SDS011;8915;51.760;14.300;2022-12-07T04:20:47;10.80;;;4.97;;
17592;SDS011;8915;51.760;14.300;2022-12-07T04:23:14;7.70;;;4.33;;
17592;SDS011;8915;51.760;14.300;2022-12-07T04:25:40;12.17;;;5.20;;
17592;SDS011;8915;51.760;14.300;2022-12-07T04:28:06;14.03;;;5.13;;
17592;SDS011;8915;51.760;14.300;2022-12-07T04:30:33;8.97;;;5.33;;
17592;SDS011;8915;51.760;14.300;2022-12-07T04:32:59;9.80;;;5.23;;
17592;SDS011;8915;51.760;14.300;2022-12-07T04:35:27;9.97;;;5.37;;
17592;SDS011;8915;51.760;14.300;2022-12-07T04:37:53;8.13;;;4.83;;
17592;SDS011;8915;51.760;14.300;2022-12-07T04:40:19;10.53;;;5.10;;
17592;SDS011;8915;51.760;14.300;2022-12-07T04:42:46;9.23;;;4.97;;
17592;SDS011;8915;51.760;14.300;2022-12-07T04:45:12;11.83;;;5.40;;
17592;SDS011;8915;51.760;14.300;2022-12-07T04:47:39;10.53;;;6.27;;
17592;SDS011;8915;51.760;14.300;2022-12-07T04:52:34;9.87;;;5.77;;
17592;SDS011;8915;51.760;14.300;2022-12-07T04:55:00;12.17;;;6.27;;
17592;SDS011;8915;51.760;14.300;2022-12-07T04:57:27;11.33;;;6.80;;
17592;SDS011;8915;51.760;14.300;2022-12-07T04:59:53;11.20;;;6.03;;
17592;SDS011;8915;51.760;14.300;2022-12-07T05:02:19;10.47;;;5.77;;
17592;SDS011;8915;51.760;14.300;2022-12-07T05:04:46;12.20;;;6.37;;
17592;SDS011;8915;51.760;14.300;2022-12-07T05:07:12;13.77;;;6.50;;
17592;SDS011;8915;51.760;14.300;2022-12-07T05:09:40;10.83;;;5.83;;
17592;SDS011;8915;51.760;14.300;2022-12-07T05:12:06;10.93;;;6.57;;
17592;SDS011;8915;51.760;14.300;2022-12-07T05:14:32;11.70;;;6.43;;
17592;SDS011;8915;51.760;14.300;2022-12-07T05:16:59;9.17;;;5.47;;
17592;SDS011;8915;51.760;14.300;2022-12-07T05:19:26;16.30;;;6.67;;
17592;SDS011;8915;51.760;14.300;2022-12-07T05:21:53;13.83;;;6.67;;
17592;SDS011;8915;51.760;14.300;2022-12-07T05:24:19;14.70;;;7.43;;
17592;SDS011;8915;51.760;14.300;2022-12-07T05:26:47;12.40;;;7.13;;
17592;SDS011;8915;51.760;14.300;2022-12-07T05:29:14;13.80;;;6.83;;
17592;SDS011;8915;51.760;14.300;2022-12-07T05:31:42;14.50;;;6.93;;
17592;SDS011;8915;51.760;14.300;2022-12-07T05:34:09;16.93;;;7.63;;
17592;SDS011;8915;51.760;14.300;2022-12-07T05:36:35;17.50;;;8.20;;
17592;SDS011;8915;51.760;14.300;2022-12-07T05:39:02;17.77;;;8.50;;
17592;SDS011;8915;51.760;14.300;2022-12-07T05:41:28;15.50;;;8.20;;
17592;SDS011;8915;51.760;14.300;2022-12-07T05:44:14;16.80;;;7.67;;
17592;SDS011;8915;51.760;14.300;2022-12-07T05:46:40;19.83;;;9.60;;
17592;SDS011;8915;51.760;14.300;2022-12-07T05:49:07;19.87;;;9.27;;
17592;SDS011;8915;51.760;14.300;2022-12-07T05:51:33;17.93;;;8.30;;
17592;SDS011;8915;51.760;14.300;2022-12-07T05:54:01;18.80;;;8.73;;
17592;SDS011;8915;51.760;14.300;2022-12-07T05:56:27;18.37;;;8.87;;
17592;SDS011;8915;51.760;14.300;2022-12-07T05:58:54;16.93;;;8.43;;
17592;SDS011;8915;51.760;14.300;2022-12-07T06:01:39;20.03;;;9.77;;
17592;SDS011;8915;51.760;14.300;2022-12-07T06:04:06;19.77;;;9.57;;
17592;SDS011;8915;51.760;14.300;2022-12-07T06:06:32;17.00;;;9.33;;
17592;SDS011;8915;51.760;14.300;2022-12-07T06:08:59;18.37;;;9.03;;
17592;SDS011;8915;51.760;14.300;2022-12-07T06:11:25;17.33;;;8.87;;
17592;SDS011;8915;51.760;14.300;2022-12-07T06:14:09;18.03;;;9.60;;
17592;SDS011;8915;51.760;14.300;2022-12-07T06:16:36;20.37;;;8.83;;
17592;SDS011;8915;51.760;14.300;2022-12-07T06:19:03;20.17;;;9.37;;
17592;SDS011;8915;51.760;14.300;2022-12-07T06:21:30;17.80;;;9.40;;
17592;SDS011;8915;51.760;14.300;2022-12-07T06:23:56;18.13;;;8.97;;
17592;SDS011;8915;51.760;14.300;2022-12-07T06:26:22;21.10;;;9.17;;
17592;SDS011;8915;51.760;14.300;2022-12-07T06:28:49;16.53;;;9.20;;
17592;SDS011;8915;51.760;14.300;2022-12-07T06:31:15;19.87;;;8.80;;
17592;SDS011;8915;51.760;14.300;2022-12-07T06:33:42;18.87;;;8.57;;
17592;SDS011;8915;51.760;14.300;2022-12-07T06:36:10;17.30;;;9.77;;
17592;SDS011;8915;51.760;14.300;2022-12-07T06:38:36;15.90;;;8.57;;
17592;SDS011;8915;51.760;14.300;2022-12-07T06:41:03;20.13;;;9.07;;
17592;SDS011;8915;51.760;14.300;2022-12-07T06:43:30;20.60;;;9.07;;
17592;SDS011;8915;51.760;14.300;2022-12-07T06:45:56;20.37;;;9.53;;
17592;SDS011;8915;51.760;14.300;2022-12-07T06:48:22;19.83;;;10.17;;
17592;SDS011;8915;51.760;14.300;2022-12-07T06:50:49;18.77;;;9.23;;
17592;SDS011;8915;51.760;14.300;2022-12-07T06:53:16;18.27;;;9.70;;
17592;SDS011;8915;51.760;14.300;2022-12-07T06:55:43;21.10;;;9.93;;
17592;SDS011;8915;51.760;14.300;2022-12-07T06:58:09;18.87;;;9.67;;
17592;SDS011;8915;51.760;14.300;2022-12-07T07:00:35;19.13;;;9.03;;
17592;SDS011;8915;51.760;14.300;2022-12-07T07:03:02;18.83;;;9.60;;
17592;SDS011;8915;51.760;14.300;2022-12-07T07:05:28;16.60;;;8.33;;
17592;SDS011;8915;51.760;14.300;2022-12-07T07:07:55;17.57;;;8.73;;
17592;SDS011;8915;51.760;14.300;2022-12-07T07:10:22;14.60;;;8.13;;
17592;SDS011;8915;51.760;14.300;2022-12-07T07:12:49;15.30;;;7.67;;
17592;SDS011;8915;51.760;14.300;2022-12-07T07:15:15;13.23;;;7.77;;
17592;SDS011;8915;51.760;14.300;2022-12-07T07:17:42;17.07;;;8.63;;
17592;SDS011;8915;51.760;14.300;2022-12-07T07:20:09;13.97;;;8.10;;
17592;SDS011;8915;51.760;14.300;2022-12-07T07:22:36;15.87;;;8.17;;
17592;SDS011;8915;51.760;14.300;2022-12-07T07:25:03;13.07;;;7.63;;
17592;SDS011;8915;51.760;14.300;2022-12-07T07:27:31;13.50;;;7.30;;
17592;SDS011;8915;51.760;14.300;2022-12-07T07:29:57;16.33;;;8.97;;
17592;SDS011;8915;51.760;14.300;2022-12-07T07:32:24;14.53;;;8.03;;
17592;SDS011;8915;51.760;14.300;2022-12-07T07:34:50;16.03;;;7.77;;
17592;SDS011;8915;51.760;14.300;2022-12-07T07:37:16;16.03;;;8.73;;
17592;SDS011;8915;51.760;14.300;2022-12-07T07:39:43;14.07;;;8.17;;
17592;SDS011;8915;51.760;14.300;2022-12-07T07:42:09;17.80;;;8.83;;
17592;SDS011;8915;51.760;14.300;2022-12-07T07:44:38;15.77;;;8.43;;
17592;SDS011;8915;51.760;14.300;2022-12-07T07:47:05;13.73;;;7.63;;
17592;SDS011;8915;51.760;14.300;2022-12-07T07:49:31;17.40;;;8.50;;
17592;SDS011;8915;51.760;14.300;2022-12-07T07:51:58;13.87;;;7.70;;
17592;SDS011;8915;51.760;14.300;2022-12-07T07:54:24;15.03;;;8.73;;
17592;SDS011;8915;51.760;14.300;2022-12-07T07:56:51;12.93;;;8.07;;
17592;SDS011;8915;51.760;14.300;2022-12-07T07:59:18;14.80;;;8.73;;
17592;SDS011;8915;51.760;14.300;2022-12-07T08:01:46;15.90;;;8.63;;
17592;SDS011;8915;51.760;14.300;2022-12-07T08:04:12;18.50;;;9.10;;
17592;SDS011;8915;51.760;14.300;2022-12-07T08:06:39;15.13;;;8.23;;
17592;SDS011;8915;51.760;14.300;2022-12-07T08:09:07;14.07;;;8.47;;
17592;SDS011;8915;51.760;14.300;2022-12-07T08:11:33;17.67;;;8.63;;
17592;SDS011;8915;51.760;14.300;2022-12-07T08:13:59;19.40;;;8.70;;
17592;SDS011;8915;51.760;14.300;2022-12-07T08:16:26;17.83;;;8.47;;
17592;SDS011;8915;51.760;14.300;2022-12-07T08:18:54;16.83;;;8.90;;
17592;SDS011;8915;51.760;14.300;2022-12-07T08:21:21;15.13;;;8.73;;
17592;SDS011;8915;51.760;14.300;2022-12-07T08:23:47;12.90;;;8.27;;
17592;SDS011;8915;51.760;14.300;2022-12-07T08:26:15;17.13;;;8.90;;
17592;SDS011;8915;51.760;14.300;2022-12-07T08:28:42;16.50;;;7.93;;
17592;SDS011;8915;51.760;14.300;2022-12-07T08:31:11;17.73;;;10.03;;
17592;SDS011;8915;51.760;14.300;2022-12-07T08:33:40;18.97;;;9.37;;
17592;SDS011;8915;51.760;14.300;2022-12-07T08:36:08;17.17;;;9.60;;
17592;SDS011;8915;51.760;14.300;2022-12-07T08:38:36;15.80;;;8.63;;
17592;SDS011;8915;51.760;14.300;2022-12-07T08:41:04;17.83;;;9.40;;
17592;SDS011;8915;51.760;14.300;2022-12-07T08:43:31;16.87;;;9.23;;
17592;SDS011;8915;51.760;14.300;2022-12-07T08:46:00;17.40;;;9.13;;
17592;SDS011;8915;51.760;14.300;2022-12-07T08:48:32;15.93;;;8.90;;
17592;SDS011;8915;51.760;14.300;2022-12-07T08:51:01;13.57;;;8.30;;
17592;SDS011;8915;51.760;14.300;2022-12-07T08:53:29;19.57;;;9.80;;
17592;SDS011;8915;51.760;14.300;2022-12-07T08:55:57;17.07;;;9.57;;
17592;SDS011;8915;51.760;14.300;2022-12-07T08:58:23;17.70;;;10.00;;
17592;SDS011;8915;51.760;14.300;2022-12-07T09:00:50;16.10;;;9.23;;
17592;SDS011;8915;51.760;14.300;2022-12-07T09:03:16;16.27;;;9.13;;
17592;SDS011;8915;51.760;14.300;2022-12-07T09:05:43;17.03;;;9.50;;
17592;SDS011;8915;51.760;14.300;2022-12-07T09:08:10;18.87;;;9.73;;
17592;SDS011;8915;51.760;14.300;2022-12-07T09:10:38;22.30;;;11.70;;
17592;SDS011;8915;51.760;14.300;2022-12-07T09:13:04;21.20;;;11.00;;
17592;SDS011;8915;51.760;14.300;2022-12-07T09:15:30;20.03;;;10.20;;
17592;SDS011;8915;51.760;14.300;2022-12-07T09:17:57;15.87;;;9.23;;
17592;SDS011;8915;51.760;14.300;2022-12-07T09:20:23;21.20;;;10.03;;
17592;SDS011;8915;51.760;14.300;2022-12-07T09:22:50;18.10;;;11.07;;
17592;SDS011;8915;51.760;14.300;2022-12-07T09:25:16;17.97;;;9.37;;
17592;SDS011;8915;51.760;14.300;2022-12-07T09:27:44;22.30;;;10.47;;
17592;SDS011;8915;51.760;14.300;2022-12-07T09:30:10;17.60;;;8.93;;
17592;SDS011;8915;51.760;14.300;2022-12-07T09:32:37;14.30;;;9.33;;
17592;SDS011;8915;51.760;14.300;2022-12-07T09:35:03;14.57;;;9.27;;
17592;SDS011;8915;51.760;14.300;2022-12-07T09:37:30;15.77;;;9.43;;
17592;SDS011;8915;51.760;14.300;2022-12-07T09:40:00;15.87;;;8.77;;
17592;SDS011;8915;51.760;14.300;2022-12-07T09:42:28;16.43;;;9.00;;
17592;SDS011;8915;51.760;14.300;2022-12-07T09:45:00;16.93;;;8.73;;
17592;SDS011;8915;51.760;14.300;2022-12-07T09:47:27;16.33;;;8.53;;
17592;SDS011;8915;51.760;14.300;2022-12-07T09:49:55;17.60;;;9.60;;
17592;SDS011;8915;51.760;14.300;2022-12-07T09:52:27;16.73;;;9.50;;
17592;SDS011;8915;51.760;14.300;2022-12-07T09:54:54;16.07;;;10.00;;
17592;SDS011;8915;51.760;14.300;2022-12-07T09:57:23;14.07;;;8.30;;
17592;SDS011;8915;51.760;14.300;2022-12-07T09:59:54;21.47;;;9.43;;
17592;SDS011;8915;51.760;14.300;2022-12-07T10:02:28;15.83;;;9.43;;
17592;SDS011;8915;51.760;14.300;2022-12-07T10:05:03;17.03;;;10.17;;
17592;SDS011;8915;51.760;14.300;2022-12-07T10:07:31;16.70;;;10.93;;
17592;SDS011;8915;51.760;14.300;2022-12-07T10:09:57;14.97;;;7.90;;
17592;SDS011;8915;51.760;14.300;2022-12-07T10:12:24;16.27;;;8.47;;
17592;SDS011;8915;51.760;14.300;2022-12-07T10:14:54;16.63;;;9.03;;
17592;SDS011;8915;51.760;14.300;2022-12-07T10:17:28;15.57;;;9.00;;
17592;SDS011;8915;51.760;14.300;2022-12-07T10:20:13;12.97;;;8.03;;
17592;SDS011;8915;51.760;14.300;2022-12-07T10:22:53;16.47;;;8.53;;
17592;SDS011;8915;51.760;14.300;2022-12-07T10:25:22;14.30;;;8.33;;
17592;SDS011;8915;51.760;14.300;2022-12-07T10:27:57;15.23;;;7.73;;
17592;SDS011;8915;51.760;14.300;2022-12-07T10:30:24;13.17;;;7.67;;
17592;SDS011;8915;51.760;14.300;2022-12-07T10:32:52;12.07;;;7.73;;
17592;SDS011;8915;51.760;14.300;2022-12-07T10:35:23;15.60;;;8.17;;
17592;SDS011;8915;51.760;14.300;2022-12-07T10:37:52;17.67;;;7.93;;
17592;SDS011;8915;51.760;14.300;2022-12-07T10:40:24;12.70;;;7.50;;
17592;SDS011;8915;51.760;14.300;2022-12-07T10:43:00;13.23;;;7.83;;
17592;SDS011;8915;51.760;14.300;2022-12-07T10:45:28;10.83;;;7.47;;
17592;SDS011;8915;51.760;14.300;2022-12-07T10:47:58;12.07;;;7.53;;
17592;SDS011;8915;51.760;14.300;2022-12-07T10:53:14;11.37;;;7.33;;
17592;SDS011;8915;51.760;14.300;2022-12-07T10:55:56;11.00;;;6.80;;
17592;SDS011;8915;51.760;14.300;2022-12-07T10:58:39;13.40;;;7.20;;
17592;SDS011;8915;51.760;14.300;2022-12-07T11:01:19;12.27;;;5.97;;
17592;SDS011;8915;51.760;14.300;2022-12-07T11:04:00;10.67;;;6.50;;
17592;SDS011;8915;51.760;14.300;2022-12-07T11:06:39;8.30;;;5.17;;
17592;SDS011;8915;51.760;14.300;2022-12-07T11:09:22;8.57;;;5.13;;
17592;SDS011;8915;51.760;14.300;2022-12-07T11:12:01;9.33;;;5.13;;
17592;SDS011;8915;51.760;14.300;2022-12-07T11:14:36;7.67;;;5.20;;
17592;SDS011;8915;51.760;14.300;2022-12-07T11:17:14;12.33;;;6.20;;
17592;SDS011;8915;51.760;14.300;2022-12-07T11:19:49;11.80;;;5.93;;
17592;SDS011;8915;51.760;14.300;2022-12-07T11:22:28;7.47;;;5.00;;
17592;SDS011;8915;51.760;14.300;2022-12-07T11:25:02;8.83;;;5.83;;
17592;SDS011;8915;51.760;14.300;2022-12-07T11:27:54;10.00;;;5.80;;
17592;SDS011;8915;51.760;14.300;2022-12-07T11:30:35;7.10;;;4.93;;
17592;SDS011;8915;51.760;14.300;2022-12-07T11:33:11;10.97;;;5.50;;
17592;SDS011;8915;51.760;14.300;2022-12-07T11:35:47;7.63;;;3.80;;
17592;SDS011;8915;51.760;14.300;2022-12-07T11:38:33;9.23;;;4.60;;
17592;SDS011;8915;51.760;14.300;2022-12-07T11:41:08;8.37;;;4.30;;
17592;SDS011;8915;51.760;14.300;2022-12-07T11:43:50;5.30;;;4.10;;
17592;SDS011;8915;51.760;14.300;2022-12-07T11:46:21;6.87;;;4.37;;
17592;SDS011;8915;51.760;14.300;2022-12-07T11:48:52;8.03;;;4.53;;
17592;SDS011;8915;51.760;14.300;2022-12-07T11:51:25;6.53;;;3.77;;
17592;SDS011;8915;51.760;14.300;2022-12-07T11:53:54;6.10;;;3.50;;
17592;SDS011;8915;51.760;14.300;2022-12-07T11:56:27;4.83;;;3.40;;
17592;SDS011;8915;51.760;14.300;2022-12-07T11:58:56;5.47;;;3.50;;
17592;SDS011;8915;51.760;14.300;2022-12-07T12:01:31;5.23;;;3.47;;
17592;SDS011;8915;51.760;14.300;2022-12-07T12:04:07;4.40;;;3.13;;
17592;SDS011;8915;51.760;14.300;2022-12-07T12:06:49;5.20;;;2.97;;
17592;SDS011;8915;51.760;14.300;2022-12-07T12:09:16;4.97;;;3.10;;
17592;SDS011;8915;51.760;14.300;2022-12-07T12:11:52;5.67;;;2.83;;
17592;SDS011;8915;51.760;14.300;2022-12-07T12:14:33;4.10;;;2.73;;
17592;SDS011;8915;51.760;14.300;2022-12-07T12:17:16;4.40;;;2.83;;
17592;SDS011;8915;51.760;14.300;2022-12-07T12:19:59;4.00;;;2.77;;
17592;SDS011;8915;51.760;14.300;2022-12-07T12:22:32;2.27;;;1.90;;
17592;SDS011;8915;51.760;14.300;2022-12-07T12:25:03;4.20;;;2.40;;
17592;SDS011;8915;51.760;14.300;2022-12-07T12:27:34;2.97;;;2.47;;
17592;SDS011;8915;51.760;14.300;2022-12-07T12:30:04;4.13;;;2.33;;
17592;SDS011;8915;51.760;14.300;2022-12-07T12:32:34;3.23;;;2.03;;
17592;SDS011;8915;51.760;14.300;2022-12-07T12:37:55;14.10;;;6.23;;
17592;SDS011;8915;51.760;14.300;2022-12-07T12:40:42;4.90;;;3.00;;
17592;SDS011;8915;51.760;14.300;2022-12-07T12:55:16;14.40;;;6.03;;
17592;SDS011;8915;51.760;14.300;2022-12-07T12:57:46;13.73;;;6.77;;
17592;SDS011;8915;51.760;14.300;2022-12-07T13:00:17;4.23;;;2.23;;
17592;SDS011;8915;51.760;14.300;2022-12-07T13:02:48;3.77;;;2.37;;
17592;SDS011;8915;51.760;14.300;2022-12-07T13:05:17;3.67;;;2.63;;
17592;SDS011;8915;51.760;14.300;2022-12-07T13:07:53;5.23;;;2.50;;
17592;SDS011;8915;51.760;14.300;2022-12-07T13:13:33;6.60;;;2.40;;
17592;SDS011;8915;51.760;14.300;2022-12-07T13:19:05;4.70;;;2.50;;
17592;SDS011;8915;51.760;14.300;2022-12-07T13:22:41;3.20;;;2.17;;
17592;SDS011;8915;51.760;14.300;2022-12-07T13:25:12;32.73;;;10.10;;
17592;SDS011;8915;51.760;14.300;2022-12-07T13:27:47;6.13;;;3.50;;
17592;SDS011;8915;51.760;14.300;2022-12-07T13:30:21;10.60;;;4.50;;
17592;SDS011;8915;51.760;14.300;2022-12-07T13:32:51;7.27;;;3.90;;
17592;SDS011;8915;51.760;14.300;2022-12-07T13:35:28;5.20;;;2.63;;
17592;SDS011;8915;51.760;14.300;2022-12-07T13:37:57;4.17;;;2.13;;
17592;SDS011;8915;51.760;14.300;2022-12-07T13:40:24;3.83;;;2.50;;
17592;SDS011;8915;51.760;14.300;2022-12-07T13:42:56;4.80;;;2.83;;
17592;SDS011;8915;51.760;14.300;2022-12-07T13:45:24;5.27;;;3.10;;
17592;SDS011;8915;51.760;14.300;2022-12-07T13:48:14;4.93;;;3.37;;
17592;SDS011;8915;51.760;14.300;2022-12-07T13:50:52;8.23;;;5.20;;
17592;SDS011;8915;51.760;14.300;2022-12-07T13:53:20;11.80;;;8.03;;
17592;SDS011;8915;51.760;14.300;2022-12-07T13:55:47;7.10;;;3.97;;
17592;SDS011;8915;51.760;14.300;2022-12-07T13:58:14;7.47;;;4.27;;
17592;SDS011;8915;51.760;14.300;2022-12-07T14:00:43;5.97;;;4.13;;
17592;SDS011;8915;51.760;14.300;2022-12-07T14:03:25;4.30;;;3.47;;
17592;SDS011;8915;51.760;14.300;2022-12-07T14:06:04;4.70;;;3.20;;
17592;SDS011;8915;51.760;14.300;2022-12-07T14:08:51;7.73;;;3.87;;
17592;SDS011;8915;51.760;14.300;2022-12-07T14:11:32;5.73;;;2.80;;
17592;SDS011;8915;51.760;14.300;2022-12-07T14:13:59;3.50;;;2.90;;
17592;SDS011;8915;51.760;14.300;2022-12-07T14:16:28;3.63;;;2.83;;
17592;SDS011;8915;51.760;14.300;2022-12-07T14:18:56;3.70;;;2.60;;
17592;SDS011;8915;51.760;14.300;2022-12-07T14:21:24;5.03;;;2.33;;
17592;SDS011;8915;51.760;14.300;2022-12-07T14:26:42;6.03;;;2.47;;
17592;SDS011;8915;51.760;14.300;2022-12-07T14:29:19;4.17;;;2.40;;
17592;SDS011;8915;51.760;14.300;2022-12-07T14:31:56;3.53;;;2.33;;
17592;SDS011;8915;51.760;14.300;2022-12-07T14:34:24;5.90;;;2.27;;
17592;SDS011;8915;51.760;14.300;2022-12-07T14:36:51;2.13;;;1.70;;
17592;SDS011;8915;51.760;14.300;2022-12-07T14:39:19;4.47;;;1.90;;
17592;SDS011;8915;51.760;14.300;2022-12-07T14:41:45;3.10;;;2.20;;
17592;SDS011;8915;51.760;14.300;2022-12-07T14:44:18;2.80;;;2.00;;
17592;SDS011;8915;51.760;14.300;2022-12-07T14:46:45;3.20;;;2.13;;
17592;SDS011;8915;51.760;14.300;2022-12-07T14:49:12;4.90;;;1.80;;
17592;SDS011;8915;51.760;14.300;2022-12-07T14:51:39;2.30;;;1.80;;
17592;SDS011;8915;51.760;14.300;2022-12-07T14:54:11;3.53;;;2.10;;
17592;SDS011;8915;51.760;14.300;2022-12-07T14:56:43;2.23;;;1.67;;
17592;SDS011;8915;51.760;14.300;2022-12-07T14:59:10;3.80;;;1.70;;
17592;SDS011;8915;51.760;14.300;2022-12-07T15:01:37;4.20;;;1.73;;
17592;SDS011;8915;51.760;14.300;2022-12-07T15:04:04;2.67;;;1.60;;
17592;SDS011;8915;51.760;14.300;2022-12-07T15:06:31;2.87;;;1.80;;
17592;SDS011;8915;51.760;14.300;2022-12-07T15:08:57;4.63;;;1.80;;
17592;SDS011;8915;51.760;14.300;2022-12-07T15:11:24;2.83;;;2.00;;
17592;SDS011;8915;51.760;14.300;2022-12-07T15:13:51;3.10;;;2.10;;
17592;SDS011;8915;51.760;14.300;2022-12-07T15:16:38;3.57;;;2.20;;
17592;SDS011;8915;51.760;14.300;2022-12-07T15:19:09;3.37;;;2.00;;
17592;SDS011;8915;51.760;14.300;2022-12-07T15:21:37;3.27;;;2.07;;
17592;SDS011;8915;51.760;14.300;2022-12-07T15:24:04;3.67;;;2.00;;
17592;SDS011;8915;51.760;14.300;2022-12-07T15:26:31;3.70;;;2.20;;
17592;SDS011;8915;51.760;14.300;2022-12-07T15:28:58;3.57;;;2.23;;
17592;SDS011;8915;51.760;14.300;2022-12-07T15:31:26;4.67;;;2.63;;